Clarksfield, Ohio
Current Conditions -  °F | °C
As of 6:53 PM on Sunday 25 Jan 2015 (Local Time) from KLPR Reporting Station
Light Snow Light Snow  
Wind Chill:   Ceiling: 2300
Heat Index: 20°   Visibility: 1.5mi
Dew Point: 17°   Wind: 16mph
Humidity: 89%   Direction: 60°ENE
Pressure: 29.89"   Gusts: 26mph
Location:  41.2376°N, 82.3866°W
Report Text: KLPR 252353Z AUTO 06014G23KT 1 1/2SM -SN BR SCT010 OVC023 M07/M08 A2989 RMK AO2 SLP130 P0000 60000 T10671083 11056 21067 53012 TSNO
Loading
Personal Weather Stations






























Interactive Weather Map New forecast layout! Learn more

10-Day Weather Forecast

Advertisements
Track Severe Weather on mobile